Terminal Aerodrome Forecast
Issued by NWS

Home | Current Version | Previous Version | Text Only | Print | Product List | Glossary On
Versions: 1 2 3 4 5 6 7 8 9 10 11 12 13 14 15 16 17
000
FTUS43 KMQT 030533
TAFIWD
TAF
KIWD 030533Z 0306/0406 00000KT 1/4SM FG VV002
     FM031300 00000KT 1SM BR BKN004
     FM031400 11004KT 2SM BR SCT006
     FM031500 11006KT P6SM FEW070
      AMD LTD TO CLD VIS AND WIND=

USA.gov is the U.S. government's official web portal to all federal, state and local government web resources and services.